Time;durP1;ratioP1;P1;durP2;ratioP2;P2;SDS_P1;SDS_P2;PMS_P1;PMS_P2;Temp;Humidity;BMP_temperature;BMP_pressure;BME280_temperature;BME280_humidity;BME280_pressure;Samples;Min_cycle;Max_cycle;Signal;HPM_P1;HPM_P2
2021/12/02 00:02:14;;;;;;;5.72;1.02;;;3.60;95.50;;;;;;5065340;28;20027;-69
2021/12/02 00:04:40;;;;;;;4.38;0.77;;;3.60;95.60;;;;;;5064424;28;20234;-72
2021/12/02 00:07:07;;;;;;;4.50;0.70;;;3.60;95.60;;;;;;5064211;28;20033;-70
2021/12/02 00:09:35;;;;;;;2.45;0.73;;;3.60;95.80;;;;;;5064064;28;20017;-70
2021/12/02 00:12:01;;;;;;;2.38;1.10;;;3.50;95.90;;;;;;5064327;28;20250;-70
2021/12/02 00:14:27;;;;;;;2.05;0.70;;;3.50;96.00;;;;;;5064407;28;20025;-70
2021/12/02 00:17:13;;;;;;;6.38;1.10;;;3.40;96.30;;;;;;5065327;28;20334;-70
2021/12/02 00:22:27;;;;;;;3.88;0.93;;;3.40;96.70;;;;;;5064202;28;20047;-70
2021/12/02 00:24:58;;;;;;;2.28;0.95;;;3.40;96.60;;;;;;5064056;28;20303;-69
2021/12/02 00:27:27;;;;;;;4.45;1.00;;;3.20;96.60;;;;;;5047927;28;20033;-70
2021/12/02 00:29:56;;;;;;;5.10;1.00;;;3.20;97.00;;;;;;5063406;28;20132;-70
2021/12/02 00:32:25;;;;;;;3.30;0.90;;;3.20;97.40;;;;;;5064909;28;20033;-70
2021/12/02 00:34:51;;;;;;;4.40;1.00;;;3.20;97.40;;;;;;5063834;28;20251;-70
2021/12/02 00:37:17;;;;;;;7.10;1.55;;;3.20;97.30;;;;;;5064968;28;20025;-71
2021/12/02 00:39:42;;;;;;;2.58;0.95;;;3.10;97.50;;;;;;5063432;28;20185;-70
2021/12/02 00:42:09;;;;;;;2.60;1.35;;;3.10;97.80;;;;;;5063898;28;20024;-69
2021/12/02 00:44:37;;;;;;;3.90;1.13;;;3.00;98.00;;;;;;5063568;28;20213;-70
2021/12/02 00:47:04;;;;;;;5.15;1.40;;;2.90;98.20;;;;;;5036212;28;20033;-70
2021/12/02 00:49:30;;;;;;;4.40;1.20;;;2.90;98.30;;;;;;5043302;28;20049;-70
2021/12/02 00:51:58;;;;;;;5.63;1.35;;;2.80;98.50;;;;;;5044497;28;20364;-69
2021/12/02 00:54:25;;;;;;;5.97;1.40;;;2.80;98.60;;;;;;5027205;28;20021;-70
2021/12/02 00:56:52;;;;;;;4.35;1.27;;;2.80;98.80;;;;;;5044570;28;20017;-70
2021/12/02 00:59:20;;;;;;;5.28;1.30;;;2.70;98.80;;;;;;5027171;28;20243;-70
2021/12/02 01:01:48;;;;;;;6.68;1.50;;;2.70;98.70;;;;;;5041794;28;20339;-70
2021/12/02 01:04:22;;;;;;;4.57;1.58;;;2.70;98.80;;;;;;5046980;28;20091;-69
2021/12/02 01:06:48;;;;;;;3.38;1.17;;;2.60;98.80;;;;;;5063172;28;20037;-71
2021/12/02 01:09:14;;;;;;;6.70;1.45;;;2.60;98.90;;;;;;5064233;28;20330;-69
2021/12/02 01:11:41;;;;;;;4.05;1.17;;;2.60;99.10;;;;;;5063511;28;20100;-69
2021/12/02 01:14:08;;;;;;;4.65;1.33;;;2.50;99.40;;;;;;5063215;28;20093;-69
2021/12/02 01:16:34;;;;;;;6.63;1.67;;;2.40;99.60;;;;;;5063288;28;20025;-69
2021/12/02 01:19:00;;;;;;;6.10;2.00;;;2.40;99.90;;;;;;5046001;28;20017;-70
2021/12/02 01:21:28;;;;;;;3.72;1.80;;;2.30;99.90;;;;;;5063142;28;20224;-70
2021/12/02 01:23:59;;;;;;;5.45;1.50;;;2.20;99.90;;;;;;5064194;28;20021;-69
2021/12/02 01:26:27;;;;;;;6.05;1.70;;;2.20;99.90;;;;;;5064101;28;20063;-70
2021/12/02 01:28:53;;;;;;;3.55;1.65;;;2.30;99.90;;;;;;5063994;28;20100;-71
2021/12/02 01:31:19;;;;;;;4.63;1.60;;;2.30;99.90;;;;;;5062657;28;20045;-71
2021/12/02 01:33:46;;;;;;;5.47;1.70;;;2.30;99.90;;;;;;5063871;28;20017;-70
2021/12/02 01:36:13;;;;;;;6.15;1.50;;;2.20;99.90;;;;;;5062974;28;20025;-70
2021/12/02 01:38:39;;;;;;;5.45;1.70;;;2.20;99.90;;;;;;5062571;28;20216;-70
2021/12/02 01:41:06;;;;;;;7.03;1.73;;;2.20;99.90;;;;;;5062903;28;20025;-70
2021/12/02 01:43:53;;;;;;;6.10;1.80;;;2.20;99.90;;;;;;5063952;28;20067;-70
2021/12/02 01:46:23;;;;;;;8.60;1.92;;;2.20;99.90;;;;;;5058572;28;20022;-70
2021/12/02 01:49:01;;;;;;;4.40;1.38;;;2.10;99.90;;;;;;5043451;28;20064;-70
2021/12/02 01:51:28;;;;;;;5.40;1.45;;;2.00;99.90;;;;;;5042713;28;20089;-71
2021/12/02 01:54:07;;;;;;;7.15;1.85;;;2.00;99.90;;;;;;5043734;28;20319;-70
2021/12/02 01:57:05;;;;;;;6.00;1.80;;;2.00;99.90;;;;;;5043782;28;20292;-70
2021/12/02 01:59:34;;;;;;;9.10;1.70;;;1.90;99.90;;;;;;5043061;28;20020;-69
2021/12/02 02:02:03;;;;;;;6.20;1.38;;;1.90;99.90;;;;;;5043455;28;20036;-70
2021/12/02 02:04:29;;;;;;;9.57;2.03;;;1.90;99.90;;;;;;5062593;28;20021;-71
2021/12/02 02:06:58;;;;;;;3.55;1.75;;;1.90;99.90;;;;;;5062466;28;20043;-70
2021/12/02 02:09:27;;;;;;;10.27;1.92;;;1.90;99.90;;;;;;5063605;28;20027;-70
2021/12/02 02:11:53;;;;;;;4.32;1.10;;;1.90;99.90;;;;;;5063693;28;20017;-69
2021/12/02 02:14:20;;;;;;;4.50;1.27;;;2.00;99.90;;;;;;5062567;28;20061;-71
2021/12/02 02:16:47;;;;;;;10.15;1.42;;;2.10;99.90;;;;;;5062431;28;20315;-70
2021/12/02 02:19:14;;;;;;;4.13;1.45;;;2.10;99.90;;;;;;5063170;28;20083;-69
2021/12/02 02:21:40;;;;;;;4.90;1.35;;;2.20;99.90;;;;;;5063578;28;20356;-70
2021/12/02 02:24:12;;;;;;;5.70;1.30;;;2.20;99.90;;;;;;5062576;28;20029;-69
2021/12/02 02:26:38;;;;;;;7.20;1.70;;;2.20;99.90;;;;;;5063399;28;20250;-70
2021/12/02 02:29:06;;;;;;;8.07;1.50;;;2.20;99.90;;;;;;5062403;28;20028;-70
2021/12/02 02:31:33;;;;;;;6.18;1.50;;;2.20;99.90;;;;;;5063412;28;20089;-71
2021/12/02 02:33:59;;;;;;;7.38;1.02;;;2.20;99.90;;;;;;5062282;28;20025;-69
2021/12/02 02:36:28;;;;;;;3.45;0.70;;;2.20;99.90;;;;;;5063482;28;20067;-69
2021/12/02 02:38:56;;;;;;;3.28;0.90;;;2.30;99.90;;;;;;5062220;28;20017;-70
2021/12/02 02:41:26;;;;;;;2.92;1.10;;;2.30;99.90;;;;;;5062421;28;20045;-70
2021/12/02 02:43:57;;;;;;;3.60;1.23;;;2.30;99.90;;;;;;5063422;28;20311;-70
2021/12/02 02:46:26;;;;;;;2.45;1.60;;;2.30;99.90;;;;;;5056668;28;20315;-69
2021/12/02 02:48:52;;;;;;;3.83;2.10;;;2.30;99.90;;;;;;5025515;28;20025;-69
2021/12/02 02:51:18;;;;;;;4.22;2.30;;;2.30;99.90;;;;;;5043351;28;20022;-70
2021/12/02 02:53:48;;;;;;;5.55;2.55;;;2.30;99.90;;;;;;5047081;28;20036;-69
2021/12/02 02:56:18;;;;;;;5.75;2.70;;;2.20;99.90;;;;;;5046675;28;20101;-70
2021/12/02 02:59:02;;;;;;;4.53;1.85;;;2.20;99.90;;;;;;5046849;28;20017;-71
2021/12/02 03:01:44;;;;;;;4.85;1.55;;;2.20;99.90;;;;;;5045495;28;20040;-70
2021/12/02 03:12:42;;;;;;;5.93;0.80;;;2.10;99.90;;;;;;5045992;28;20248;-69
2021/12/02 03:17:55;;;;;;;5.88;1.10;;;2.10;99.90;;;;;;5045654;28;20030;-71
2021/12/02 03:20:21;;;;;;;3.80;1.00;;;2.10;99.90;;;;;;5061626;28;20220;-70
2021/12/02 03:22:47;;;;;;;3.13;1.02;;;2.10;99.90;;;;;;5061984;28;20021;-70
2021/12/02 03:25:13;;;;;;;3.72;1.20;;;2.20;99.90;;;;;;5046455;28;20028;-70
2021/12/02 03:27:38;;;;;;;5.00;1.30;;;2.20;99.90;;;;;;5045037;28;20076;-70
2021/12/02 03:30:06;;;;;;;2.15;0.90;;;2.30;99.90;;;;;;5044972;28;20057;-71
2021/12/02 03:32:32;;;;;;;3.58;0.98;;;2.30;99.90;;;;;;5046250;28;20063;-71
2021/12/02 03:34:58;;;;;;;4.43;1.10;;;2.30;99.90;;;;;;5045029;28;20021;-70
2021/12/02 03:37:23;;;;;;;3.85;1.10;;;2.20;99.90;;;;;;5045134;28;20017;-72
2021/12/02 03:39:49;;;;;;;4.60;1.10;;;2.20;99.90;;;;;;5045000;28;20040;-70
2021/12/02 03:42:15;;;;;;;7.05;1.70;;;2.30;99.90;;;;;;5046115;28;20029;-70
2021/12/02 03:44:42;;;;;;;3.17;0.90;;;2.30;99.90;;;;;;5044689;28;20048;-71
2021/12/02 03:47:07;;;;;;;3.35;1.10;;;2.30;99.90;;;;;;5052465;28;20062;-69
2021/12/02 03:49:33;;;;;;;4.72;1.75;;;2.40;99.90;;;;;;5045501;28;20080;-69
2021/12/02 03:51:59;;;;;;;1.23;0.88;;;2.40;99.90;;;;;;5044794;28;20028;-70
2021/12/02 03:54:25;;;;;;;5.15;1.00;;;2.30;99.90;;;;;;5044875;28;20093;-69
2021/12/02 03:56:50;;;;;;;2.90;0.80;;;2.20;99.90;;;;;;5044756;28;20125;-71
2021/12/02 03:59:16;;;;;;;2.33;1.10;;;2.20;99.90;;;;;;5045825;28;20307;-71
2021/12/02 04:01:42;;;;;;;3.88;1.33;;;2.20;99.90;;;;;;5045859;28;20045;-70
2021/12/02 04:04:07;;;;;;;5.80;1.30;;;2.10;99.90;;;;;;5063013;28;20026;-71
2021/12/02 04:06:33;;;;;;;2.95;1.33;;;2.10;99.90;;;;;;5064430;28;20033;-70
2021/12/02 04:09:06;;;;;;;3.38;1.67;;;2.00;99.90;;;;;;5064533;28;20059;-72
2021/12/02 04:11:36;;;;;;;7.25;2.13;;;2.00;99.90;;;;;;5065076;28;20246;-71
2021/12/02 04:14:09;;;;;;;4.05;1.85;;;1.80;99.90;;;;;;5065642;28;20092;-71
2021/12/02 04:16:38;;;;;;;6.82;2.25;;;1.80;99.90;;;;;;5065364;28;20029;-69
2021/12/02 04:19:06;;;;;;;10.35;3.42;;;1.80;99.90;;;;;;5063948;28;20029;-70
2021/12/02 04:21:32;;;;;;;6.55;2.15;;;1.80;99.90;;;;;;5064219;28;20017;-71
2021/12/02 04:23:58;;;;;;;6.75;3.40;;;1.80;99.90;;;;;;5064351;28;20071;-69
2021/12/02 04:26:24;;;;;;;6.63;1.88;;;1.80;99.90;;;;;;5065176;28;20082;-70
2021/12/02 04:28:50;;;;;;;10.82;3.17;;;1.80;99.90;;;;;;5063828;28;20025;-72
2021/12/02 04:31:16;;;;;;;4.90;1.90;;;1.70;99.90;;;;;;5065174;28;20049;-70
2021/12/02 04:33:41;;;;;;;5.95;2.20;;;1.70;99.90;;;;;;5063900;28;20029;-70
2021/12/02 04:36:07;;;;;;;9.07;2.90;;;1.70;99.90;;;;;;5063961;28;20021;-71
2021/12/02 04:38:33;;;;;;;7.03;2.00;;;1.70;99.90;;;;;;5064996;28;20088;-70
2021/12/02 04:41:00;;;;;;;5.88;1.40;;;1.80;99.90;;;;;;5064897;28;20302;-70
2021/12/02 04:43:25;;;;;;;4.13;1.90;;;1.80;99.90;;;;;;5063684;28;20029;-71
2021/12/02 04:45:52;;;;;;;4.38;1.73;;;1.90;99.90;;;;;;5063886;28;20304;-71
2021/12/02 04:48:18;;;;;;;5.32;1.73;;;2.10;99.90;;;;;;5044671;28;20044;-71
2021/12/02 04:50:45;;;;;;;3.15;1.70;;;2.00;99.90;;;;;;5044903;28;20084;-71
2021/12/02 04:53:11;;;;;;;4.57;1.63;;;2.00;99.90;;;;;;5044781;28;20017;-71
2021/12/02 04:55:37;;;;;;;4.15;1.80;;;2.00;99.90;;;;;;5043552;28;20216;-72
2021/12/02 04:58:03;;;;;;;2.63;2.08;;;2.00;99.90;;;;;;5044986;28;20056;-72
2021/12/02 05:00:29;;;;;;;6.03;1.58;;;2.00;99.90;;;;;;5043485;28;20028;-70
2021/12/02 05:02:55;;;;;;;4.88;0.90;;;2.20;99.90;;;;;;5054310;28;20084;-71
2021/12/02 05:05:22;;;;;;;3.90;1.05;;;2.40;99.90;;;;;;5044829;28;20017;-70
2021/12/02 05:07:49;;;;;;;6.57;1.00;;;2.70;99.90;;;;;;5063575;28;20070;-69
2021/12/02 05:10:15;;;;;;;7.32;0.93;;;2.90;99.90;;;;;;5063910;28;20031;-69
2021/12/02 05:12:40;;;;;;;2.25;0.60;;;3.00;99.90;;;;;;5064226;28;20304;-70
2021/12/02 05:15:06;;;;;;;5.40;0.95;;;3.10;99.90;;;;;;5063372;28;20045;-71
2021/12/02 05:17:32;;;;;;;2.38;0.90;;;3.20;99.90;;;;;;5064697;28;20243;-70
2021/12/02 05:19:58;;;;;;;3.90;1.10;;;3.20;99.90;;;;;;5063860;28;20012;-70
2021/12/02 05:22:23;;;;;;;5.80;1.00;;;3.20;99.90;;;;;;5063188;28;20331;-70
2021/12/02 05:24:49;;;;;;;6.80;1.02;;;3.30;99.90;;;;;;5064126;28;20062;-71
2021/12/02 05:27:15;;;;;;;8.45;1.00;;;3.40;99.90;;;;;;5062982;28;20021;-70
2021/12/02 05:29:41;;;;;;;5.57;1.20;;;3.40;99.90;;;;;;5062726;28;20068;-71
2021/12/02 05:32:07;;;;;;;5.13;1.65;;;3.50;99.90;;;;;;5062718;28;20021;-70
2021/12/02 05:34:34;;;;;;;10.95;1.90;;;3.60;99.90;;;;;;5062821;28;20047;-71
2021/12/02 05:37:00;;;;;;;7.85;1.02;;;3.60;99.90;;;;;;5062837;28;20040;-70
2021/12/02 05:39:26;;;;;;;5.47;1.48;;;3.60;99.90;;;;;;5063901;28;20036;-70
2021/12/02 05:41:53;;;;;;;5.90;1.23;;;3.70;99.90;;;;;;5062968;28;20086;-70
2021/12/02 05:44:21;;;;;;;5.32;1.30;;;3.70;99.90;;;;;;5062800;28;20013;-70
2021/12/02 05:46:47;;;;;;;9.32;2.35;;;3.70;99.90;;;;;;5055076;28;20022;-71
2021/12/02 05:49:12;;;;;;;5.03;1.27;;;3.70;99.90;;;;;;5042188;28;20049;-72
2021/12/02 05:51:40;;;;;;;6.57;1.00;;;3.80;99.90;;;;;;5043842;28;20017;-70
2021/12/02 05:54:06;;;;;;;5.57;1.13;;;3.80;99.90;;;;;;5043901;28;20055;-71
2021/12/02 05:56:31;;;;;;;2.47;0.80;;;3.80;99.90;;;;;;5043976;28;20025;-72
2021/12/02 05:58:57;;;;;;;8.73;0.77;;;3.90;99.90;;;;;;5044133;28;20033;-70
2021/12/02 06:01:23;;;;;;;4.10;0.93;;;3.90;99.90;;;;;;5043646;28;20025;-71
2021/12/02 06:03:49;;;;;;;3.90;0.90;;;4.00;99.70;;;;;;5060770;28;20025;-71
2021/12/02 06:06:15;;;;;;;4.82;1.10;;;4.00;99.80;;;;;;5062266;28;20346;-71
2021/12/02 06:08:41;;;;;;;5.38;1.15;;;4.00;99.80;;;;;;5062431;28;20025;-71
2021/12/02 06:11:06;;;;;;;5.15;1.10;;;4.00;99.90;;;;;;5063537;28;20059;-70
2021/12/02 06:13:33;;;;;;;3.58;0.88;;;4.10;99.90;;;;;;5063671;28;20080;-70
2021/12/02 06:15:58;;;;;;;3.88;0.80;;;4.10;99.70;;;;;;5062078;28;20343;-71
2021/12/02 06:18:24;;;;;;;4.53;0.90;;;4.10;99.50;;;;;;5063090;28;20067;-71
2021/12/02 06:20:53;;;;;;;2.80;0.75;;;4.10;99.50;;;;;;5063489;28;20021;-71
2021/12/02 06:23:20;;;;;;;3.15;0.82;;;4.00;99.50;;;;;;5063229;28;20071;-71
2021/12/02 06:25:46;;;;;;;6.97;1.00;;;4.00;99.70;;;;;;5063519;28;20024;-70
2021/12/02 06:28:12;;;;;;;1.67;0.75;;;4.00;99.60;;;;;;5066610;28;20035;-71
2021/12/02 06:30:38;;;;;;;3.55;0.85;;;4.00;99.50;;;;;;5066964;28;20045;-71
2021/12/02 06:33:03;;;;;;;3.15;0.80;;;4.00;99.30;;;;;;5066200;28;20079;-70
2021/12/02 06:35:29;;;;;;;4.13;0.80;;;4.00;99.50;;;;;;5066165;28;20028;-70
2021/12/02 06:37:55;;;;;;;5.95;1.20;;;4.00;99.50;;;;;;5067162;28;20083;-70
2021/12/02 06:40:21;;;;;;;3.05;0.85;;;4.00;99.50;;;;;;5067242;28;20025;-71
2021/12/02 06:42:47;;;;;;;5.30;0.82;;;4.10;99.50;;;;;;5065898;28;20025;-70
2021/12/02 06:45:13;;;;;;;3.42;0.95;;;4.10;99.50;;;;;;5065552;28;20028;-70
2021/12/02 06:47:41;;;;;;;6.45;1.05;;;4.00;99.60;;;;;;5051190;28;20204;-71
2021/12/02 06:50:12;;;;;;;3.88;0.73;;;4.10;99.60;;;;;;5046771;28;20059;-72
2021/12/02 06:52:38;;;;;;;5.20;1.00;;;4.20;99.70;;;;;;5046934;28;20093;-71
2021/12/02 06:55:04;;;;;;;6.10;0.98;;;4.20;99.60;;;;;;5046839;28;20029;-71
2021/12/02 06:57:30;;;;;;;4.35;0.98;;;4.30;99.50;;;;;;5046930;28;20026;-70
2021/12/02 06:59:56;;;;;;;4.45;0.93;;;4.30;99.50;;;;;;5045327;28;20096;-71
2021/12/02 07:02:22;;;;;;;3.10;0.80;;;4.30;99.40;;;;;;5051815;28;20017;-71
2021/12/02 07:04:50;;;;;;;3.63;0.90;;;4.20;99.60;;;;;;5066700;28;20025;-69
2021/12/02 07:07:16;;;;;;;4.28;0.75;;;4.20;99.40;;;;;;5063954;28;20215;-70
2021/12/02 07:09:42;;;;;;;5.07;1.33;;;4.20;99.40;;;;;;5065342;28;20029;-71
2021/12/02 07:12:08;;;;;;;9.10;1.08;;;4.20;99.60;;;;;;5065452;28;20304;-71
2021/12/02 07:14:33;;;;;;;6.53;0.90;;;4.20;99.80;;;;;;5066460;28;20032;-70
2021/12/02 07:16:59;;;;;;;5.85;1.00;;;4.30;99.80;;;;;;5066411;28;20271;-70
2021/12/02 07:19:25;;;;;;;5.53;1.10;;;4.30;99.60;;;;;;5064599;28;20365;-70
2021/12/02 07:21:51;;;;;;;3.83;1.13;;;4.30;99.70;;;;;;5065384;28;20021;-70
2021/12/02 07:24:17;;;;;;;3.55;0.88;;;4.30;99.90;;;;;;5066274;28;20296;-69
2021/12/02 07:26:44;;;;;;;6.57;0.88;;;4.30;99.90;;;;;;5048340;28;20048;-71
2021/12/02 07:29:11;;;;;;;7.35;1.23;;;4.30;99.90;;;;;;5048662;28;20038;-72
2021/12/02 07:31:39;;;;;;;4.25;1.02;;;4.20;99.90;;;;;;5049353;28;20060;-71
2021/12/02 07:34:06;;;;;;;7.95;1.13;;;4.10;99.90;;;;;;5044649;28;20017;-71
2021/12/02 07:36:32;;;;;;;4.00;0.82;;;4.20;99.90;;;;;;5028529;28;20017;-73
2021/12/02 07:39:05;;;;;;;4.13;0.98;;;4.20;99.90;;;;;;5043177;28;20312;-70
2021/12/02 07:41:31;;;;;;;3.75;1.00;;;4.20;99.90;;;;;;5028526;28;20025;-71
2021/12/02 07:43:57;;;;;;;6.53;1.20;;;4.20;99.90;;;;;;5044916;28;20029;-71
2021/12/02 07:46:23;;;;;;;5.28;1.63;;;4.10;99.90;;;;;;5044569;28;20021;-70
2021/12/02 07:48:49;;;;;;;9.63;1.50;;;4.10;99.90;;;;;;5043855;28;20060;-71
2021/12/02 07:51:16;;;;;;;8.63;1.75;;;4.10;99.90;;;;;;5044731;28;20032;-70
2021/12/02 07:53:45;;;;;;;10.48;2.17;;;4.10;99.90;;;;;;5044523;28;20202;-69
2021/12/02 07:56:13;;;;;;;8.85;1.95;;;4.10;99.90;;;;;;5017181;28;20028;-72
2021/12/02 07:58:44;;;;;;;11.25;2.30;;;4.30;99.90;;;;;;5058903;28;20301;-71
2021/12/02 08:01:11;;;;;;;7.30;1.40;;;4.30;99.90;;;;;;5050399;28;20032;-72
2021/12/02 08:03:43;;;;;;;5.82;1.45;;;4.30;99.90;;;;;;5061845;28;20037;-71
2021/12/02 08:06:10;;;;;;;;;;;4.30;99.90;;;;;;5056892;28;20027;-72
2021/12/02 08:08:37;;;;;;;7.35;1.20;;;4.40;99.90;;;;;;5063273;28;19993;-71
2021/12/02 08:11:02;;;;;;;5.85;0.70;;;4.40;99.90;;;;;;5047247;28;20099;-73
2021/12/02 08:13:30;;;;;;;4.57;0.95;;;4.50;99.90;;;;;;5064078;28;20025;-71
2021/12/02 08:15:56;;;;;;;8.15;0.80;;;4.60;99.90;;;;;;5064111;28;20035;-71
2021/12/02 08:18:22;;;;;;;2.83;0.70;;;4.70;99.80;;;;;;5062123;28;20021;-73
2021/12/02 08:20:48;;;;;;;3.58;0.77;;;4.70;99.50;;;;;;5065189;28;20114;-73
2021/12/02 08:23:14;;;;;;;5.93;1.10;;;4.70;99.30;;;;;;5061492;28;20094;-75
2021/12/02 08:25:39;;;;;;;5.32;0.80;;;4.80;99.00;;;;;;5064141;28;20237;-72
2021/12/02 08:28:05;;;;;;;2.58;0.88;;;4.80;98.70;;;;;;5042611;28;20029;-72
2021/12/02 08:30:33;;;;;;;6.53;0.80;;;4.80;98.20;;;;;;5063660;28;20251;-73
2021/12/02 08:33:01;;;;;;;5.55;0.80;;;4.80;97.90;;;;;;5062485;28;20021;-71
2021/12/02 08:35:28;;;;;;;3.63;0.93;;;4.90;97.90;;;;;;5063634;28;20204;-71
2021/12/02 08:37:59;;;;;;;5.15;0.93;;;4.90;97.90;;;;;;5064973;28;20028;-71
2021/12/02 08:40:33;;;;;;;8.02;0.93;;;4.90;97.70;;;;;;5064409;28;20084;-72
2021/12/02 08:43:00;;;;;;;4.55;0.98;;;4.90;97.80;;;;;;5063255;28;20028;-72
2021/12/02 08:45:27;;;;;;;2.78;0.60;;;4.90;97.80;;;;;;5063079;28;20017;-71
2021/12/02 08:47:55;;;;;;;8.45;0.88;;;4.90;97.70;;;;;;5063610;28;20029;-71
2021/12/02 08:50:22;;;;;;;6.13;1.10;;;5.00;97.70;;;;;;5062607;28;20304;-70
2021/12/02 08:52:49;;;;;;;3.45;0.80;;;4.90;97.50;;;;;;5063458;28;20025;-71
2021/12/02 08:55:17;;;;;;;5.00;0.98;;;4.90;97.50;;;;;;5063569;28;20331;-70
2021/12/02 08:57:42;;;;;;;2.50;0.45;;;5.00;97.50;;;;;;5063648;28;20025;-70
2021/12/02 09:00:12;;;;;;;8.00;0.90;;;5.00;97.50;;;;;;5062035;28;20024;-71
2021/12/02 09:02:37;;;;;;;7.18;0.88;;;5.00;97.40;;;;;;5063113;28;20055;-69
2021/12/02 09:05:04;;;;;;;4.07;0.77;;;5.00;97.40;;;;;;5063036;28;20025;-69
2021/12/02 09:07:30;;;;;;;7.78;1.25;;;5.10;97.10;;;;;;5061280;28;20058;-71
2021/12/02 09:09:56;;;;;;;4.95;0.63;;;5.10;96.40;;;;;;5061955;28;20021;-69
2021/12/02 09:12:23;;;;;;;5.50;0.45;;;5.10;96.20;;;;;;5063033;28;20024;-70
2021/12/02 09:14:51;;;;;;;6.13;1.42;;;5.20;95.80;;;;;;5062144;28;20020;-70
2021/12/02 09:17:17;;;;;;;7.47;0.90;;;5.20;95.60;;;;;;5035249;28;20049;-69
2021/12/02 09:19:43;;;;;;;1.15;0.60;;;5.10;95.40;;;;;;5063083;28;20029;-70
2021/12/02 09:22:08;;;;;;;1.45;0.40;;;5.10;94.80;;;;;;5063647;28;20028;-71
2021/12/02 09:24:36;;;;;;;1.83;0.55;;;5.10;94.00;;;;;;5062476;28;20017;-70
2021/12/02 09:27:02;;;;;;;1.17;0.40;;;5.10;94.40;;;;;;5058386;28;20365;-69
2021/12/02 09:29:28;;;;;;;5.55;0.52;;;5.10;93.70;;;;;;5041753;28;20215;-72
2021/12/02 09:31:55;;;;;;;0.95;0.25;;;5.20;94.30;;;;;;5041442;28;20045;-70
2021/12/02 09:34:21;;;;;;;5.90;0.70;;;5.20;93.90;;;;;;5066616;28;20100;-69
2021/12/02 09:36:47;;;;;;;2.15;0.65;;;5.10;93.40;;;;;;5040719;28;20025;-71
2021/12/02 09:39:14;;;;;;;4.13;0.60;;;5.10;93.40;;;;;;5063277;28;20013;-72
2021/12/02 09:41:41;;;;;;;6.30;0.85;;;5.10;93.10;;;;;;5061875;28;20071;-68
2021/12/02 09:44:07;;;;;;;5.30;1.15;;;5.10;93.20;;;;;;5040585;28;20075;-70
2021/12/02 09:46:34;;;;;;;2.22;0.43;;;5.20;93.20;;;;;;5053212;28;20039;-70
2021/12/02 09:49:03;;;;;;;2.92;0.40;;;5.20;92.70;;;;;;5062616;28;20088;-70
2021/12/02 09:51:36;;;;;;;4.55;0.60;;;5.20;92.90;;;;;;5041658;28;20025;-70
2021/12/02 09:54:12;;;;;;;3.78;0.73;;;5.20;91.90;;;;;;5043552;28;20013;-69
2021/12/02 09:56:40;;;;;;;3.47;0.60;;;5.20;91.90;;;;;;5062033;28;20324;-72
2021/12/02 09:59:10;;;;;;;3.03;0.40;;;5.20;91.70;;;;;;5062692;28;20222;-70
2021/12/02 10:01:50;;;;;;;0.85;0.47;;;5.20;91.60;;;;;;5062632;28;20031;-72
2021/12/02 10:04:16;;;;;;;2.72;0.30;;;5.20;90.90;;;;;;5066069;28;20017;-73
2021/12/02 10:06:43;;;;;;;4.13;0.68;;;5.20;90.60;;;;;;5066280;28;20033;-73
2021/12/02 10:09:13;;;;;;;2.55;0.50;;;5.20;90.70;;;;;;5064687;28;20048;-71
2021/12/02 10:12:13;;;;;;;0.73;0.40;;;5.20;90.50;;;;;;5066265;28;20048;-72
2021/12/02 10:14:35;;;;;;;7.10;0.98;;;5.30;90.10;;;;;;5065654;28;20016;-72
2021/12/02 10:17:11;;;;;;;2.33;0.47;;;5.30;90.20;;;;;;5065748;28;20045;-70
2021/12/02 10:19:57;;;;;;;15.10;1.02;;;5.30;89.60;;;;;;5057980;28;20316;-72
2021/12/02 10:22:23;;;;;;;5.05;0.50;;;5.30;89.60;;;;;;5072842;28;20054;-74
2021/12/02 10:24:49;;;;;;;7.22;0.43;;;5.30;90.10;;;;;;5085214;28;20024;-70
2021/12/02 10:27:15;;;;;;;4.60;0.60;;;5.30;90.10;;;;;;5065115;28;20259;-70
2021/12/02 10:29:42;;;;;;;7.28;0.70;;;5.30;88.40;;;;;;5062996;28;20025;-69
2021/12/02 10:32:17;;;;;;;0.93;0.40;;;5.30;89.40;;;;;;5079972;28;20048;-68
2021/12/02 10:34:57;;;;;;;1.95;0.47;;;5.40;86.80;;;;;;5048837;28;20032;-70
2021/12/02 10:37:27;;;;;;;7.13;0.70;;;5.40;86.70;;;;;;5046735;28;20028;-70
2021/12/02 10:40:03;;;;;;;5.20;0.60;;;5.40;85.80;;;;;;5064066;28;20041;-68
2021/12/02 10:42:31;;;;;;;5.75;0.60;;;5.40;86.60;;;;;;5066511;28;20031;-70
2021/12/02 10:45:02;;;;;;;11.00;0.90;;;5.40;85.00;;;;;;5063033;28;20270;-68
2021/12/02 10:47:28;;;;;;;0.87;0.40;;;5.40;85.20;;;;;;5066400;28;20040;-68
2021/12/02 10:49:59;;;;;;;6.93;0.75;;;5.40;84.40;;;;;;5064770;28;20332;-67
2021/12/02 10:52:29;;;;;;;3.20;0.70;;;5.50;85.20;;;;;;5065800;28;20052;-67
2021/12/02 10:55:01;;;;;;;10.85;0.57;;;5.40;84.80;;;;;;5064631;28;20025;-68
2021/12/02 10:57:28;;;;;;;2.97;0.30;;;5.40;84.80;;;;;;5064757;28;20066;-67
2021/12/02 10:59:57;;;;;;;10.45;0.77;;;5.50;84.70;;;;;;5065255;28;20032;-67
2021/12/02 11:02:34;;;;;;;3.72;0.43;;;5.50;85.40;;;;;;5066343;28;20025;-66
2021/12/02 11:05:06;;;;;;;4.22;0.45;;;5.60;85.90;;;;;;5064477;28;20041;-67
2021/12/02 11:07:34;;;;;;;7.20;0.55;;;5.50;85.50;;;;;;5064784;28;20045;-69
2021/12/02 11:10:04;;;;;;;3.60;0.30;;;5.50;85.60;;;;;;5064954;28;20035;-67
2021/12/02 11:12:32;;;;;;;2.95;0.50;;;5.60;85.00;;;;;;5064907;28;20107;-67
2021/12/02 11:15:17;;;;;;;2.47;0.55;;;5.60;85.10;;;;;;5064201;28;20013;-67
2021/12/02 11:17:59;;;;;;;11.30;0.63;;;5.60;85.10;;;;;;5066747;28;20017;-68
2021/12/02 11:20:29;;;;;;;3.63;0.45;;;5.60;85.80;;;;;;5021231;28;20029;-67
2021/12/02 11:23:01;;;;;;;7.03;0.82;;;5.70;84.40;;;;;;5065083;28;20069;-68
2021/12/02 11:25:27;;;;;;;4.95;1.17;;;5.70;84.10;;;;;;5064399;28;20041;-69
2021/12/02 11:27:54;;;;;;;4.13;0.70;;;5.70;84.30;;;;;;5065579;28;20297;-67
2021/12/02 11:30:26;;;;;;;5.47;0.52;;;5.70;84.10;;;;;;5065236;28;20320;-67
2021/12/02 11:33:02;;;;;;;7.38;0.82;;;5.70;83.30;;;;;;5064767;28;20251;-68
2021/12/02 11:35:32;;;;;;;3.83;0.55;;;5.70;84.10;;;;;;5064366;28;20028;-68
2021/12/02 11:38:04;;;;;;;6.97;0.57;;;5.70;83.50;;;;;;5062598;28;20040;-68
2021/12/02 11:40:38;;;;;;;6.00;0.75;;;5.70;83.80;;;;;;5073204;28;20028;-68
2021/12/02 11:43:06;;;;;;;4.45;0.45;;;5.80;84.40;;;;;;5064020;28;20071;-68
2021/12/02 11:45:36;;;;;;;4.30;0.70;;;5.80;84.30;;;;;;5063736;28;20020;-68
2021/12/02 11:48:02;;;;;;;4.15;0.70;;;5.80;84.60;;;;;;5064237;28;20350;-68
2021/12/02 11:50:30;;;;;;;0.98;0.40;;;5.80;83.20;;;;;;5059812;28;20029;-69
2021/12/02 11:52:56;;;;;;;3.33;0.52;;;5.80;84.60;;;;;;5056039;28;20045;-70
2021/12/02 11:55:27;;;;;;;4.65;0.65;;;5.80;84.00;;;;;;5055211;28;20025;-67
2021/12/02 11:57:54;;;;;;;1.90;0.55;;;5.90;83.40;;;;;;5027920;28;20335;-69
2021/12/02 12:00:22;;;;;;;2.15;0.50;;;6.00;83.50;;;;;;5044714;28;20359;-67
2021/12/02 12:02:56;;;;;;;4.60;0.55;;;6.00;84.00;;;;;;5046442;28;20039;-68
2021/12/02 12:05:28;;;;;;;4.15;0.70;;;6.00;84.00;;;;;;5044379;28;20074;-69
2021/12/02 12:07:54;;;;;;;4.68;0.70;;;6.10;83.30;;;;;;5063288;28;20033;-68
2021/12/02 12:10:27;;;;;;;6.22;0.90;;;6.10;82.80;;;;;;5063175;28;20331;-67
2021/12/02 12:13:12;;;;;;;7.85;0.88;;;6.00;84.20;;;;;;5063302;28;20025;-68
2021/12/02 12:15:48;;;;;;;2.55;0.55;;;6.00;84.30;;;;;;5078642;28;20028;-66
2021/12/02 12:18:36;;;;;;;4.15;0.50;;;6.10;84.60;;;;;;5063291;28;20310;-68
2021/12/02 12:21:05;;;;;;;10.38;0.80;;;6.10;84.00;;;;;;5059890;28;20029;-69
2021/12/02 12:23:36;;;;;;;3.60;1.25;;;6.10;83.90;;;;;;5046572;28;20025;-69
2021/12/02 12:26:29;;;;;;;3.10;0.50;;;6.10;83.30;;;;;;5046385;28;20024;-71
2021/12/02 12:29:17;;;;;;;5.13;0.75;;;6.10;82.90;;;;;;5062781;28;20029;-70
2021/12/02 12:32:35;;;;;;;4.15;0.60;;;6.10;83.70;;;;;;5042721;28;20041;-70
2021/12/02 12:35:05;;;;;;;3.90;0.60;;;6.10;84.00;;;;;;5066595;28;20331;-68
2021/12/02 12:40:25;;;;;;;7.07;0.80;;;6.20;84.80;;;;;;5047067;28;20332;-70
2021/12/02 12:43:15;;;;;;;11.80;1.63;;;6.30;83.80;;;;;;5056108;28;20280;-67
2021/12/02 12:45:43;;;;;;;8.15;0.80;;;6.30;84.30;;;;;;5067329;28;20025;-71
2021/12/02 12:48:29;;;;;;;7.72;0.63;;;6.30;84.20;;;;;;5045609;28;20039;-70
2021/12/02 12:51:17;;;;;;;9.27;0.60;;;6.30;84.00;;;;;;5064886;28;20036;-70
2021/12/02 12:53:48;;;;;;;7.78;1.00;;;6.30;83.40;;;;;;5062318;28;20024;-68
2021/12/02 12:56:16;;;;;;;3.40;0.70;;;6.30;83.50;;;;;;5044907;28;20025;-69
2021/12/02 12:59:06;;;;;;;2.72;0.50;;;6.30;83.60;;;;;;5062494;28;20062;-69
2021/12/02 13:01:37;;;;;;;3.70;0.70;;;6.30;83.70;;;;;;5059158;28;20029;-70
2021/12/02 13:04:11;;;;;;;2.63;0.67;;;6.30;83.70;;;;;;5052647;28;20058;-70
2021/12/02 13:07:05;;;;;;;4.68;0.80;;;6.30;84.10;;;;;;5061293;28;20045;-68
2021/12/02 13:09:36;;;;;;;7.93;1.27;;;6.40;83.70;;;;;;5062292;28;20192;-67
2021/12/02 13:12:04;;;;;;;3.35;0.45;;;6.40;83.30;;;;;;5061296;28;20033;-69
2021/12/02 13:14:30;;;;;;;6.72;1.10;;;6.40;81.80;;;;;;5063140;28;20025;-69
2021/12/02 13:16:56;;;;;;;4.10;0.70;;;6.30;82.90;;;;;;5048719;28;20075;-69
2021/12/02 13:19:21;;;;;;;5.20;0.73;;;6.30;83.50;;;;;;5049964;28;20050;-72
2021/12/02 13:21:57;;;;;;;4.15;0.75;;;6.40;83.10;;;;;;5060850;28;20063;-70
2021/12/02 13:24:33;;;;;;;3.55;0.65;;;6.40;83.10;;;;;;5061598;28;20048;-70